Time;durP1;ratioP1;P1;durP2;ratioP2;P2;SDS_P1;SDS_P2;PMS_P1;PMS_P2;Temp;Humidity;BMP_temperature;BMP_pressure;BME280_temperature;BME280_humidity;BME280_pressure;Samples;Min_cycle;Max_cycle;Signal;HPM_P1;HPM_P2
2023/02/20 00:01:03;;;;;;;5.33;3.20;;;;;;;0.33;75.16;100343.55;1778784;79;25757;-46
2023/02/20 00:03:30;;;;;;;12.93;4.00;;;;;;;0.27;75.50;100335.19;1778983;79;25620;-47
2023/02/20 00:05:57;;;;;;;11.33;4.30;;;;;;;0.21;75.95;100325.52;1778825;80;25538;-45
2023/02/20 00:08:24;;;;;;;16.32;7.33;;;;;;;0.16;76.34;100325.42;1778848;80;27518;-46
2023/02/20 00:10:50;;;;;;;8.30;5.15;;;;;;;0.11;77.77;100317.36;1778770;79;25876;-46
2023/02/20 00:13:16;;;;;;;12.00;5.10;;;;;;;0.05;77.20;100310.32;1778864;79;25591;-48
2023/02/20 00:15:42;;;;;;;14.03;5.42;;;;;;;0.01;77.37;100311.32;1778778;80;25837;-46
2023/02/20 00:18:10;;;;;;;9.48;4.30;;;;;;;-0.01;77.78;100306.23;1778803;80;25407;-46
2023/02/20 00:20:36;;;;;;;13.18;4.87;;;;;;;-0.05;78.14;100304.28;1777777;79;27482;-46
2023/02/20 00:23:03;;;;;;;13.95;4.87;;;;;;;-0.06;78.40;100292.05;1778389;79;27349;-46
2023/02/20 00:25:29;;;;;;;8.95;3.42;;;;;;;-0.08;78.79;100296.80;1778850;80;25559;-46
2023/02/20 00:27:55;;;;;;;7.78;4.22;;;;;;;-0.08;78.83;100288.83;1778783;80;25373;-47
2023/02/20 00:30:24;;;;;;;8.90;4.37;;;;;;;-0.07;78.80;100298.41;1778813;80;25369;-46
2023/02/20 00:32:54;;;;;;;13.20;4.63;;;;;;;-0.06;79.06;100302.69;1779078;80;27542;-46
2023/02/20 00:35:25;;;;;;;10.40;4.87;;;;;;;-0.04;78.82;100298.73;1778800;80;25546;-46
2023/02/20 00:37:54;;;;;;;9.30;3.72;;;;;;;-0.03;78.82;100290.25;1778866;79;25385;-46
2023/02/20 00:40:24;;;;;;;13.58;4.37;;;;;;;-0.01;79.13;100298.79;1778919;79;32421;-46
2023/02/20 00:42:52;;;;;;;11.03;4.55;;;;;;;0.02;78.86;100297.49;1779047;79;25658;-50
2023/02/20 00:45:21;;;;;;;9.45;3.70;;;;;;;0.04;78.90;100300.75;1778936;80;28569;-46
2023/02/20 00:47:47;;;;;;;5.90;3.10;;;;;;;0.06;78.86;100303.44;1778946;79;32787;-47
2023/02/20 00:50:18;;;;;;;10.85;3.98;;;;;;;0.09;78.65;100304.83;1778837;80;25595;-47
2023/02/20 00:52:46;;;;;;;12.28;4.45;;;;;;;0.11;78.67;100303.52;1778869;79;25549;-46
2023/02/20 00:55:14;;;;;;;8.03;4.30;;;;;;;0.14;78.45;100319.02;1778585;79;25556;-43
2023/02/20 00:57:41;;;;;;;8.80;3.77;;;;;;;0.16;78.32;100306.27;1777638;80;27513;-45
2023/02/20 01:00:15;;;;;;;8.50;3.67;;;;;;;0.20;78.43;100306.59;1777241;80;25960;-46
2023/02/20 01:02:41;;;;;;;12.88;4.75;;;;;;;0.21;78.25;100301.58;1773800;79;25851;-47
2023/02/20 01:05:07;;;;;;;7.30;3.65;;;;;;;0.24;78.06;100290.96;1778000;79;25685;-48
2023/02/20 01:07:33;;;;;;;6.95;2.95;;;;;;;0.28;78.07;100297.43;1778881;79;32804;-47
2023/02/20 01:09:59;;;;;;;9.15;2.98;;;;;;;0.29;77.86;100295.03;1778851;79;27807;-47
2023/02/20 01:12:26;;;;;;;9.70;3.42;;;;;;;0.32;77.63;100294.56;1778803;79;25578;-46
2023/02/20 01:14:54;;;;;;;8.88;3.45;;;;;;;0.34;77.44;100291.96;1778155;79;25584;-48
2023/02/20 01:17:22;;;;;;;6.08;2.50;;;;;;;0.36;77.29;100303.16;1778836;79;25535;-47
2023/02/20 01:19:48;;;;;;;8.43;3.40;;;;;;;0.38;77.32;100292.81;1778887;79;25531;-45
2023/02/20 01:22:16;;;;;;;9.13;4.90;;;;;;;0.41;77.32;100297.63;1778775;80;27463;-46
2023/02/20 01:24:42;;;;;;;7.62;4.67;;;;;;;0.41;77.14;100287.81;1778717;80;25428;-47
2023/02/20 01:27:10;;;;;;;8.53;3.27;;;;;;;0.44;77.02;100282.52;1778816;80;25555;-46
2023/02/20 01:29:37;;;;;;;8.10;3.83;;;;;;;0.45;77.03;100273.50;1778871;79;25450;-48
2023/02/20 01:32:05;;;;;;;11.30;3.77;;;;;;;0.46;76.86;100277.75;1778868;79;25441;-47
2023/02/20 01:34:31;;;;;;;7.28;3.22;;;;;;;0.46;76.68;100283.91;1778861;80;27452;-44
2023/02/20 01:36:58;;;;;;;7.00;3.02;;;;;;;0.46;76.62;100269.77;1778707;79;25604;-45
2023/02/20 01:39:32;;;;;;;9.70;3.58;;;;;;;0.45;76.48;100280.95;1778707;80;25426;-45
2023/02/20 01:42:02;;;;;;;13.70;3.67;;;;;;;0.46;76.52;100277.25;1778824;80;25524;-47
2023/02/20 01:44:33;;;;;;;10.48;2.50;;;;;;;0.46;76.49;100270.59;1778953;79;25615;-46
2023/02/20 01:47:07;;;;;;;9.08;2.77;;;;;;;0.46;76.43;100282.57;1778844;80;28071;-46
2023/02/20 01:49:39;;;;;;;7.20;3.12;;;;;;;0.46;76.51;100283.08;1778719;79;25768;-48
2023/02/20 01:52:16;;;;;;;10.90;3.33;;;;;;;0.45;76.61;100284.94;1778875;79;25402;-49
2023/02/20 01:54:51;;;;;;;9.43;3.47;;;;;;;0.45;76.63;100279.61;1778729;80;25442;-46
2023/02/20 01:57:23;;;;;;;8.80;3.37;;;;;;;0.46;76.56;100269.27;1778764;80;25422;-47
2023/02/20 01:59:54;;;;;;;7.87;3.95;;;;;;;0.47;76.64;100275.38;1780386;80;29742;-50
2023/02/20 02:02:23;;;;;;;12.80;4.33;;;;;;;0.48;76.50;100272.48;1775062;79;25563;-47
2023/02/20 02:04:51;;;;;;;8.98;3.47;;;;;;;0.48;76.62;100268.49;1773663;80;35202;-48
2023/02/20 02:07:19;;;;;;;8.20;3.85;;;;;;;0.48;76.66;100266.36;1773436;80;27599;-49
2023/02/20 02:09:57;;;;;;;8.85;3.10;;;;;;;0.49;76.68;100263.44;1773528;79;25535;-48
2023/02/20 02:12:25;;;;;;;9.50;3.10;;;;;;;0.50;76.60;100270.91;1774110;79;27499;-47
2023/02/20 02:14:51;;;;;;;7.80;3.27;;;;;;;0.51;76.62;100261.36;1773434;80;25564;-49
2023/02/20 02:17:51;;;;;;;9.78;3.30;;;;;;;0.52;76.70;100261.63;1773498;80;25581;-49
2023/02/20 02:20:42;;;;;;;7.75;3.00;;;;;;;0.52;76.70;100254.17;1755592;80;25539;-48
2023/02/20 02:23:39;;;;;;;7.85;3.85;;;;;;;0.55;76.62;100263.00;1772891;80;25441;-46
2023/02/20 02:26:17;;;;;;;7.92;2.58;;;;;;;0.55;76.60;100258.48;1773584;79;27303;-46
2023/02/20 02:29:08;;;;;;;7.15;3.30;;;;;;;0.57;76.57;100248.92;1773565;80;25927;-44
2023/02/20 02:31:49;;;;;;;9.35;4.28;;;;;;;0.57;76.51;100262.23;1773520;79;25604;-45
2023/02/20 02:34:39;;;;;;;7.50;2.77;;;;;;;0.57;76.57;100254.25;1773522;80;25519;-47
2023/02/20 02:37:31;;;;;;;8.60;3.08;;;;;;;0.58;76.54;100260.37;1773616;79;25383;-47
2023/02/20 02:40:13;;;;;;;9.55;3.83;;;;;;;0.59;76.60;100254.01;1773484;80;26646;-46
2023/02/20 02:42:53;;;;;;;5.87;3.62;;;;;;;0.59;76.62;100265.45;1773568;79;25771;-47
2023/02/20 02:45:30;;;;;;;11.08;4.58;;;;;;;0.59;76.69;100252.14;1774656;79;25627;-45
2023/02/20 02:48:11;;;;;;;11.83;3.20;;;;;;;0.59;76.65;100254.01;1773666;80;25471;-47
2023/02/20 02:50:44;;;;;;;7.92;3.15;;;;;;;0.60;76.71;100251.64;1773837;79;25540;-46
2023/02/20 02:53:14;;;;;;;9.78;3.65;;;;;;;0.60;76.63;100245.78;1769580;80;27637;-46
2023/02/20 02:55:42;;;;;;;;;;;;;;;0.61;76.81;100250.03;1745470;82;25820;-46
2023/02/20 02:58:12;;;;;;;4.83;2.05;;;;;;;0.60;76.87;100253.77;1742906;82;25556;-47
2023/02/20 03:00:56;;;;;;;7.40;2.95;;;;;;;0.61;76.77;100255.36;1743472;81;26122;-45
2023/02/20 03:03:33;;;;;;;6.47;4.10;;;;;;;0.63;76.90;100259.11;1743034;82;25555;-45
2023/02/20 03:06:08;;;;;;;5.28;2.55;;;;;;;0.63;76.81;100262.60;1745683;82;27476;-45
2023/02/20 03:08:51;;;;;;;4.60;3.22;;;;;;;0.64;76.80;100256.21;1747654;81;25620;-44
2023/02/20 03:11:20;;;;;;;10.95;4.60;;;;;;;0.66;76.78;100260.76;1747236;81;25574;-46
2023/02/20 03:17:32;;;;;;;7.58;2.22;;;;;;;0.70;76.73;100258.45;1698370;84;25472;-47
2023/02/20 03:20:06;;;;;;;3.77;1.70;;;;;;;0.71;76.72;100248.86;1697143;84;27534;-46
2023/02/20 03:22:59;;;;;;;7.45;4.55;;;;;;;0.73;76.59;100260.09;1695288;84;25724;-47
2023/02/20 03:25:34;;;;;;;6.90;3.27;;;;;;;0.75;76.56;100263.84;1688691;85;25491;-47
2023/02/20 03:28:11;;;;;;;4.58;2.62;;;;;;;0.74;76.52;100257.69;1688503;85;25616;-47
2023/02/20 03:30:52;;;;;;;4.70;1.82;;;;;;;0.77;76.52;100259.58;1688686;85;25447;-48
2023/02/20 03:45:06;;;;;;;6.28;1.67;;;;;;;0.77;76.35;100258.25;1688784;85;25587;-46
2023/02/20 03:47:38;;;;;;;8.40;2.67;;;;;;;0.75;76.35;100257.19;1688625;85;28660;-47
2023/02/20 03:52:56;;;;;;;5.95;2.27;;;;;;;0.71;76.41;100260.84;1702930;82;25639;-46
2023/02/20 03:55:25;;;;;;;5.55;3.00;;;;;;;0.70;76.52;100244.59;1749119;81;25565;-46
2023/02/20 03:57:56;;;;;;;8.15;2.65;;;;;;;0.67;76.55;100249.61;1737902;82;25658;-46
2023/02/20 04:00:29;;;;;;;7.75;3.12;;;;;;;0.65;76.62;100244.52;1751089;81;27437;-46
2023/02/20 04:03:02;;;;;;;9.03;3.30;;;;;;;0.66;76.86;100243.45;1749450;80;25751;-47
2023/02/20 04:05:34;;;;;;;6.95;3.30;;;;;;;0.65;76.73;100243.73;1742959;82;25488;-46
2023/02/20 04:08:19;;;;;;;9.40;3.30;;;;;;;0.63;76.73;100247.96;1742942;81;26505;-46
2023/02/20 04:10:50;;;;;;;9.85;3.42;;;;;;;0.61;76.74;100250.57;1742948;82;25580;-45
2023/02/20 04:13:19;;;;;;;9.60;3.95;;;;;;;0.59;76.85;100250.81;1736915;82;29667;-45
2023/02/20 04:15:48;;;;;;;13.58;5.53;;;;;;;0.58;76.94;100244.39;1742834;81;25815;-45
2023/02/20 04:18:19;;;;;;;4.62;2.87;;;;;;;0.57;76.91;100244.13;1743114;81;25410;-47
2023/02/20 04:20:52;;;;;;;5.72;3.47;;;;;;;0.53;77.00;100229.98;1742936;81;25568;-48
2023/02/20 04:23:23;;;;;;;12.85;5.35;;;;;;;0.53;76.97;100235.30;1742977;82;25625;-47
2023/02/20 04:26:01;;;;;;;10.72;3.52;;;;;;;0.53;77.25;100235.30;1742931;82;27551;-50
2023/02/20 04:28:30;;;;;;;11.25;4.50;;;;;;;0.51;77.35;100226.76;1742798;81;26060;-47
2023/02/20 04:30:58;;;;;;;6.00;2.17;;;;;;;0.51;77.16;100232.08;1743132;81;25447;-47
2023/02/20 04:33:24;;;;;;;10.70;6.45;;;;;;;0.51;77.23;100229.42;1742855;81;25560;-47
2023/02/20 04:35:52;;;;;;;9.50;5.33;;;;;;;0.51;77.18;100240.57;1742933;81;25422;-49
2023/02/20 04:38:21;;;;;;;11.65;8.25;;;;;;;0.49;77.14;100232.03;1742881;82;27572;-47
2023/02/20 04:40:47;;;;;;;6.45;4.08;;;;;;;0.48;77.26;100230.44;1742694;82;25795;-50
2023/02/20 04:43:14;;;;;;;9.20;5.10;;;;;;;0.47;77.16;100225.61;1742862;81;25371;-47
2023/02/20 04:45:40;;;;;;;10.72;5.47;;;;;;;0.46;77.35;100209.89;1742837;82;25660;-47
2023/02/20 04:48:08;;;;;;;6.00;3.98;;;;;;;0.44;77.25;100216.78;1742865;82;25626;-47
2023/02/20 04:50:36;;;;;;;6.85;3.83;;;;;;;0.44;77.44;100215.98;1742835;82;27541;-47
2023/02/20 04:53:04;;;;;;;7.22;3.50;;;;;;;0.44;77.55;100214.66;1742792;81;25536;-47
2023/02/20 04:55:31;;;;;;;8.70;4.08;;;;;;;0.42;77.56;100208.24;1742820;81;25574;-48
2023/02/20 04:57:57;;;;;;;7.87;3.30;;;;;;;0.42;77.70;100203.45;1742799;82;25630;-46
2023/02/20 05:00:27;;;;;;;7.17;5.53;;;;;;;0.42;77.71;100203.45;1742757;81;25450;-46
2023/02/20 05:02:55;;;;;;;7.78;4.53;;;;;;;0.41;77.85;100201.33;1743037;82;28960;-47
2023/02/20 05:05:27;;;;;;;14.60;13.30;;;;;;;0.39;77.74;100202.07;1742763;82;25950;-47
2023/02/20 05:07:58;;;;;;;8.45;3.50;;;;;;;0.39;77.86;100201.27;1742911;81;25555;-46
2023/02/20 05:10:28;;;;;;;16.97;15.83;;;;;;;0.38;77.86;100205.80;1742991;81;25560;-48
2023/02/20 05:12:55;;;;;;;12.23;8.98;;;;;;;0.37;78.11;100200.19;1742924;82;25629;-47
2023/02/20 05:15:26;;;;;;;25.43;23.38;;;;;;;0.39;78.05;100201.27;1742874;81;27418;-47
2023/02/20 05:17:54;;;;;;;29.48;27.25;;;;;;;0.39;78.16;100198.08;1742817;82;25825;-45
2023/02/20 05:22:17;;;;;;;42.43;38.98;;;;;;;0.39;78.13;100191.42;1742841;81;25392;-45
2023/02/20 05:22:48;;;;;;;14.95;12.70;;;;;;;0.40;78.31;100189.05;1741313;82;25610;-46
2023/02/20 05:25:15;;;;;;;8.88;6.85;;;;;;;0.42;78.41;100198.12;1742850;82;25431;-45
2023/02/20 05:27:41;;;;;;;6.42;5.80;;;;;;;0.44;78.62;100177.39;1742884;81;28208;-46
2023/02/20 05:30:11;;;;;;;48.35;45.23;;;;;;;0.46;78.61;100180.61;1742697;82;25526;-45
2023/02/20 05:32:39;;;;;;;6.58;5.03;;;;;;;0.48;78.65;100185.19;1743010;82;25634;-45
2023/02/20 05:35:07;;;;;;;43.58;40.12;;;;;;;0.50;78.70;100175.09;1742760;82;25589;-46
2023/02/20 05:37:33;;;;;;;32.78;30.48;;;;;;;0.52;78.76;100187.63;1743017;81;25208;-46
2023/02/20 05:40:00;;;;;;;66.12;61.18;;;;;;;0.53;78.96;100186.06;1742800;81;27488;-45
2023/02/20 05:42:27;;;;;;;65.72;61.13;;;;;;;0.56;78.87;100198.06;1742712;82;25640;-45
2023/02/20 05:44:56;;;;;;;60.75;56.33;;;;;;;0.59;79.26;100194.91;1742812;82;25510;-46
2023/02/20 05:47:22;;;;;;;82.22;76.17;;;;;;;0.61;79.11;100177.37;1742731;82;27622;-46
2023/02/20 05:49:48;;;;;;;79.95;73.80;;;;;;;0.65;79.32;100181.16;1742838;81;25419;-45
2023/02/20 05:52:16;;;;;;;73.33;67.90;;;;;;;0.66;79.50;100178.23;1742766;82;27508;-45
2023/02/20 05:54:46;;;;;;;76.72;71.22;;;;;;;0.69;79.24;100167.09;1742754;82;26013;-46
2023/02/20 05:57:15;;;;;;;79.70;74.05;;;;;;;0.71;79.48;100157.53;1742850;82;25450;-46
2023/02/20 05:59:41;;;;;;;29.50;27.15;;;;;;;0.73;79.46;100161.58;1742830;81;25664;-45
2023/02/20 06:02:07;;;;;;;62.85;58.13;;;;;;;0.76;79.42;100149.61;1742817;82;25454;-48
2023/02/20 06:04:33;;;;;;;77.17;71.75;;;;;;;0.79;79.51;100152.33;1742792;82;27460;-46
2023/02/20 06:06:59;;;;;;;80.53;75.00;;;;;;;0.80;79.88;100157.91;1742777;81;25769;-46
2023/02/20 06:09:26;;;;;;;81.70;75.90;;;;;;;0.84;79.52;100147.06;1742789;82;25586;-46
2023/02/20 06:11:56;;;;;;;80.77;75.08;;;;;;;0.86;79.58;100151.61;1742760;82;25587;-46
2023/02/20 06:14:25;;;;;;;83.55;77.50;;;;;;;0.90;79.42;100151.38;1743005;82;25398;-47
2023/02/20 06:16:55;;;;;;;54.50;50.15;;;;;;;0.92;79.49;100157.28;1742878;82;27574;-46
2023/02/20 06:19:24;;;;;;;;;;;;;;;0.95;79.36;100151.44;1745459;81;25555;-47
2023/02/20 06:21:53;;;;;;;80.75;74.82;;;;;;;0.99;79.31;100147.75;1743141;82;25563;-47
2023/02/20 06:24:21;;;;;;;57.85;53.78;;;;;;;1.02;79.34;100156.08;1743088;82;25587;-47
2023/02/20 06:26:49;;;;;;;80.15;74.45;;;;;;;1.06;79.27;100141.19;1743062;82;25396;-46
2023/02/20 06:29:18;;;;;;;77.75;72.15;;;;;;;1.08;79.19;100144.41;1743009;82;28364;-47
2023/02/20 06:31:46;;;;;;;55.70;51.70;;;;;;;1.13;79.14;100129.55;1742979;82;25477;-45
2023/02/20 06:34:15;;;;;;;81.42;75.65;;;;;;;1.16;79.08;100141.02;1743036;81;25378;-48
2023/02/20 06:36:44;;;;;;;79.80;74.30;;;;;;;1.21;78.94;100136.56;1743147;81;25441;-46
2023/02/20 06:39:13;;;;;;;82.50;76.67;;;;;;;1.25;78.93;100131.00;1743253;81;25612;-46
2023/02/20 06:41:40;;;;;;;82.37;76.57;;;;;;;1.29;78.92;100134.79;1743095;82;27495;-47
2023/02/20 06:44:06;;;;;;;80.30;74.82;;;;;;;1.32;78.87;100127.34;1742987;81;25514;-46
2023/02/20 06:46:32;;;;;;;76.80;71.33;;;;;;;1.35;78.80;100122.31;1743048;82;25636;-50
2023/02/20 06:49:00;;;;;;;34.58;32.15;;;;;;;1.39;78.83;100127.40;1743138;81;27683;-47
2023/02/20 06:51:32;;;;;;;3.08;2.40;;;;;;;1.44;78.70;100124.78;1743005;81;25416;-46
2023/02/20 06:54:02;;;;;;;4.70;2.70;;;;;;;1.45;78.59;100118.41;1743035;81;27548;-46
2023/02/20 06:56:33;;;;;;;5.10;2.40;;;;;;;1.52;78.70;100118.75;1742951;81;25574;-46
2023/02/20 06:59:05;;;;;;;10.18;2.98;;;;;;;1.55;78.63;100110.22;1743099;82;25401;-46
2023/02/20 07:01:39;;;;;;;10.53;4.85;;;;;;;1.58;78.50;100116.38;1745980;81;25626;-46
2023/02/20 07:04:20;;;;;;;47.10;43.90;;;;;;;1.62;78.59;100118.83;1748086;82;25391;-46
2023/02/20 07:06:48;;;;;;;47.35;44.35;;;;;;;1.67;78.44;100129.00;1746603;81;28008;-45
2023/02/20 07:09:19;;;;;;;81.00;75.32;;;;;;;1.70;78.33;100114.34;1747916;82;25513;-48
2023/02/20 07:11:49;;;;;;;80.50;74.62;;;;;;;1.75;78.41;100126.39;1748086;82;25556;-48
2023/02/20 07:14:17;;;;;;;80.55;74.87;;;;;;;1.79;78.32;100128.05;1748085;81;26142;-46
2023/02/20 07:16:43;;;;;;;81.97;76.17;;;;;;;1.85;78.31;100113.67;1748136;81;25617;-54
2023/02/20 07:19:12;;;;;;;81.42;75.72;;;;;;;1.93;78.42;100096.41;1748008;81;27468;-47
2023/02/20 07:21:40;;;;;;;79.65;74.00;;;;;;;2.04;78.44;100094.89;1748146;82;25560;-48
2023/02/20 07:24:08;;;;;;;6.28;2.83;;;;;;;2.16;78.32;100091.20;1747979;81;25414;-47
2023/02/20 07:26:36;;;;;;;9.58;2.85;;;;;;;2.30;78.44;100087.55;1748015;81;25641;-47
2023/02/20 07:29:04;;;;;;;10.25;3.25;;;;;;;2.34;77.95;100089.98;1748074;82;25399;-47
2023/02/20 07:31:31;;;;;;;6.92;3.20;;;;;;;2.37;77.89;100092.94;1747998;82;27531;-50
2023/02/20 07:33:59;;;;;;;4.83;3.22;;;;;;;2.42;77.53;100086.83;1747980;82;25715;-49
2023/02/20 07:36:25;;;;;;;12.28;10.90;;;;;;;2.50;77.91;100082.84;1748019;82;25532;-48
2023/02/20 07:38:58;;;;;;;80.50;74.82;;;;;;;2.58;77.65;100091.70;1747917;82;25585;-46
2023/02/20 07:41:36;;;;;;;80.30;74.50;;;;;;;2.66;77.50;100096.55;1748042;81;25565;-53
2023/02/20 07:44:04;;;;;;;7.33;3.17;;;;;;;2.74;77.73;100086.70;1748014;82;27604;-46
2023/02/20 07:46:33;;;;;;;6.80;2.83;;;;;;;2.84;77.17;100087.79;1747876;81;25397;-46
2023/02/20 07:49:04;;;;;;;4.95;3.02;;;;;;;2.92;77.39;100100.10;1748025;81;25451;-49
2023/02/20 07:51:32;;;;;;;6.17;3.05;;;;;;;2.97;76.82;100092.64;1748008;82;25734;-47
2023/02/20 07:54:01;;;;;;;8.38;3.58;;;;;;;2.97;76.79;100080.08;1748168;81;25531;-48
2023/02/20 07:56:29;;;;;;;7.80;3.02;;;;;;;2.96;76.34;100065.13;1747984;82;27565;-45
2023/02/20 07:58:57;;;;;;;7.08;2.62;;;;;;;2.97;76.76;100056.58;1747877;82;26124;-49
2023/02/20 08:01:24;;;;;;;5.87;3.22;;;;;;;2.97;76.46;100052.56;1745892;80;25457;-47
2023/02/20 08:03:50;;;;;;;9.00;3.37;;;;;;;2.96;76.40;100042.93;1742853;81;25626;-46
2023/02/20 08:06:19;;;;;;;6.78;2.83;;;;;;;2.95;76.57;100037.34;1742953;81;25442;-47
2023/02/20 08:08:51;;;;;;;6.53;2.50;;;;;;;2.98;76.80;100030.14;1743124;82;27502;-47
2023/02/20 08:11:22;;;;;;;11.50;3.58;;;;;;;2.98;76.70;100030.92;1742910;82;25474;-47
2023/02/20 08:13:50;;;;;;;7.80;3.27;;;;;;;3.02;76.84;100021.84;1742991;82;25549;-46
2023/02/20 08:16:16;;;;;;;6.00;2.77;;;;;;;3.05;76.72;100011.97;1743200;81;26209;-45
2023/02/20 08:18:44;;;;;;;10.93;3.20;;;;;;;3.09;76.67;100022.38;1742907;81;25393;-49
2023/02/20 08:21:14;;;;;;;11.18;3.90;;;;;;;3.10;76.71;100018.66;1742932;81;27546;-46
2023/02/20 09:39:00;;;;;;;10.32;6.40;;;;;;;2.04;85.70;99838.77;1783404;77;25411;-50
2023/02/20 09:41:52;;;;;;;11.28;6.97;;;;;;;1.97;86.52;99822.18;1785526;80;25563;-52
2023/02/20 09:44:35;;;;;;;11.03;6.30;;;;;;;1.92;86.87;99820.83;1752505;80;25420;-54
2023/02/20 09:47:08;;;;;;;13.03;7.53;;;;;;;1.90;87.00;99802.17;1785286;80;27676;-53
2023/02/20 09:49:37;;;;;;;16.95;14.40;;;;;;;1.88;87.72;99789.09;1784965;80;25712;-55
2023/02/20 09:52:08;;;;;;;9.50;6.08;;;;;;;1.85;88.43;99776.28;1785870;80;25403;-53
2023/02/20 09:54:48;;;;;;;12.70;6.58;;;;;;;1.84;88.52;99761.36;1785358;80;26115;-50
2023/02/20 09:57:20;;;;;;;11.40;5.25;;;;;;;1.82;89.18;99752.29;1785764;80;25613;-55
2023/02/20 10:00:05;;;;;;;12.60;7.35;;;;;;;1.79;89.90;99739.48;1785702;80;27484;-53
2023/02/20 10:02:49;;;;;;;15.83;7.95;;;;;;;1.79;90.25;99732.02;1785745;80;25577;-55
2023/02/20 10:05:23;;;;;;;18.60;9.38;;;;;;;1.77;91.48;99726.95;1784034;80;25706;-50
2023/02/20 10:07:51;;;;;;;14.87;9.45;;;;;;;1.78;91.94;99722.41;1784693;80;25718;-50
2023/02/20 10:10:37;;;;;;;15.80;9.85;;;;;;;1.76;91.72;99709.33;1785731;80;25396;-54
2023/02/20 10:13:45;;;;;;;14.00;9.70;;;;;;;1.77;91.76;99712.79;1785059;80;27497;-51
2023/02/20 10:16:19;;;;;;;18.67;9.78;;;;;;;1.76;91.38;99708.00;1785744;80;25567;-51
2023/02/20 10:18:51;;;;;;;16.80;10.32;;;;;;;1.74;93.05;99696.80;1785677;80;25537;-51
2023/02/20 10:21:35;;;;;;;15.70;10.40;;;;;;;1.73;93.56;99685.06;1784072;80;25726;-51
2023/02/20 10:24:42;;;;;;;21.57;10.82;;;;;;;1.74;93.29;99677.31;1765149;80;25713;-51
2023/02/20 10:27:45;;;;;;;16.77;9.68;;;;;;;1.72;94.42;99670.94;1785663;80;27457;-50
2023/02/20 10:30:16;;;;;;;18.98;10.25;;;;;;;1.71;94.57;99656.54;1777198;80;25859;-50
2023/02/20 10:32:57;;;;;;;15.60;10.65;;;;;;;1.64;93.78;99641.59;1785008;80;25451;-50
2023/02/20 10:35:35;;;;;;;16.67;10.35;;;;;;;1.60;93.77;99647.20;1752895;80;25571;-52
2023/02/20 10:38:06;;;;;;;15.38;10.53;;;;;;;1.55;93.10;99647.20;1781841;80;25668;-48
2023/02/20 10:40:50;;;;;;;18.60;11.08;;;;;;;1.47;94.03;99649.04;1775174;80;27468;-51
2023/02/20 10:43:44;;;;;;;17.67;9.03;;;;;;;1.40;93.18;99639.17;1738581;80;25782;-51
2023/02/20 10:46:24;;;;;;;16.30;9.83;;;;;;;1.31;94.12;99628.20;1775219;80;25624;-51
2023/02/20 10:48:55;;;;;;;17.10;8.95;;;;;;;1.24;94.39;99622.34;1773961;80;25638;-51
2023/02/20 10:51:39;;;;;;;16.95;8.35;;;;;;;1.16;94.35;99636.98;1775237;80;25613;-54
2023/02/20 10:54:26;;;;;;;20.90;9.88;;;;;;;1.12;93.97;99623.91;1775261;80;27693;-49
2023/02/20 10:57:01;;;;;;;18.12;8.68;;;;;;;1.10;94.67;99615.38;1775159;80;26014;-51
2023/02/20 10:59:50;;;;;;;16.75;9.63;;;;;;;1.08;95.05;99606.86;1775241;80;25616;-49
2023/02/20 11:02:24;;;;;;;16.95;8.45;;;;;;;1.04;95.89;99602.59;1728436;80;25585;-50
2023/02/20 11:05:11;;;;;;;15.10;9.08;;;;;;;1.01;95.49;99590.33;1728484;80;25674;-54
2023/02/20 11:07:37;;;;;;;16.20;8.80;;;;;;;0.98;96.70;99577.53;1773136;80;27470;-51
2023/02/20 11:10:06;;;;;;;15.68;7.72;;;;;;;0.95;96.15;99572.19;1775159;80;25535;-51
2023/02/20 11:12:49;;;;;;;13.85;7.80;;;;;;;0.93;96.73;99559.13;1775315;80;25580;-51
2023/02/20 11:15:21;;;;;;;14.70;9.18;;;;;;;0.91;95.95;99567.13;1775394;80;27701;-50
2023/02/20 11:17:58;;;;;;;15.55;8.65;;;;;;;0.88;97.07;99560.99;1774797;80;25428;-47
2023/02/20 11:20:40;;;;;;;15.58;7.55;;;;;;;0.84;97.27;99551.40;1775326;80;27484;-48
2023/02/20 11:23:07;;;;;;;15.75;8.00;;;;;;;0.81;96.99;99541.27;1775287;80;25399;-48
2023/02/20 11:25:40;;;;;;;13.85;7.42;;;;;;;0.79;96.59;99535.41;1775435;80;25399;-49
2023/02/20 11:28:21;;;;;;;13.80;7.67;;;;;;;0.79;96.97;99506.66;1775330;80;26050;-49
2023/02/20 11:30:59;;;;;;;12.45;6.85;;;;;;;0.75;97.58;99495.75;1773838;80;25575;-49
2023/02/20 11:33:30;;;;;;;14.47;8.20;;;;;;;0.72;97.86;99460.33;1774171;80;27578;-51
2023/02/20 11:36:09;;;;;;;13.75;7.87;;;;;;;0.72;97.30;99399.10;1775318;80;25404;-53
2023/02/20 11:38:37;;;;;;;15.15;8.10;;;;;;;0.70;97.68;99428.64;1775301;80;25628;-54
2023/02/20 11:41:25;;;;;;;16.02;8.50;;;;;;;0.68;98.27;99432.62;1775287;80;26096;-54
2023/02/20 11:44:12;;;;;;;18.75;8.28;;;;;;;0.70;98.67;99429.98;1775355;80;25458;-54
2023/02/20 11:46:38;;;;;;;21.27;8.28;;;;;;;0.73;99.53;99387.38;1748225;80;27448;-51
2023/02/20 11:49:10;;;;;;;16.67;8.85;;;;;;;0.76;99.94;99352.23;1775180;80;25777;-54
2023/02/20 11:51:41;;;;;;;15.38;8.58;;;;;;;0.81;100.00;99384.19;1775342;80;25569;-55
2023/02/20 11:54:28;;;;;;;15.30;8.38;;;;;;;0.85;100.00;99378.61;1775494;80;25863;-52
2023/02/20 11:57:24;;;;;;;14.63;8.58;;;;;;;0.89;100.00;99348.25;1775519;80;25231;-54
2023/02/20 12:00:13;;;;;;;15.50;7.85;;;;;;;0.93;100.00;99316.80;1775516;80;27679;-52
2023/02/20 12:02:58;;;;;;;16.15;9.15;;;;;;;0.99;100.00;99326.94;1775369;80;25543;-52
2023/02/20 12:06:00;;;;;;;14.43;8.40;;;;;;;1.05;100.00;99322.39;1773505;80;25641;-52
2023/02/20 12:08:52;;;;;;;17.32;8.60;;;;;;;1.11;100.00;99292.03;1774275;80;25563;-52
2023/02/20 12:11:26;;;;;;;16.85;8.53;;;;;;;1.18;100.00;99305.06;1775863;80;25445;-53
2023/02/20 12:13:56;;;;;;;20.52;9.70;;;;;;;1.25;100.00;99281.59;1775814;80;27855;-50
2023/02/20 12:17:01;;;;;;;21.07;9.78;;;;;;;1.30;100.00;99259.72;1775289;80;25595;-54
2023/02/20 12:20:01;;;;;;;28.32;14.15;;;;;;;1.39;100.00;99237.30;1775360;80;25632;-51
2023/02/20 12:22:42;;;;;;;19.27;9.50;;;;;;;1.53;100.00;99231.37;1774963;80;25531;-50
2023/02/20 12:25:23;;;;;;;17.17;9.28;;;;;;;1.65;100.00;99219.84;1775157;80;25626;-50
2023/02/20 12:28:10;;;;;;;16.50;8.68;;;;;;;1.81;100.00;99208.55;1775297;80;27497;-52
2023/02/20 12:30:54;;;;;;;22.50;10.50;;;;;;;1.99;100.00;99214.56;1775304;80;25466;-50
2023/02/20 12:33:52;;;;;;;19.60;10.00;;;;;;;2.05;100.00;99208.09;1775303;80;25522;-53
2023/02/20 12:36:40;;;;;;;19.25;9.13;;;;;;;2.12;100.00;99203.00;1775224;80;25596;-51
2023/02/20 12:39:29;;;;;;;19.57;11.30;;;;;;;2.22;100.00;99188.23;1775173;80;25579;-51
2023/02/20 12:42:13;;;;;;;13.30;6.55;;;;;;;2.32;100.00;99204.16;1774793;80;27486;-50
2023/02/20 12:45:00;;;;;;;17.82;9.35;;;;;;;2.39;100.00;99187.27;1775368;80;25456;-51
2023/02/20 12:47:39;;;;;;;17.48;9.63;;;;;;;2.48;100.00;99188.78;1775245;80;25534;-51
2023/02/20 12:50:26;;;;;;;17.00;8.80;;;;;;;2.56;100.00;99196.73;1775419;80;25494;-51
2023/02/20 12:53:07;;;;;;;19.20;11.55;;;;;;;2.63;100.00;99201.19;1754679;80;25541;-50
2023/02/20 12:55:57;;;;;;;18.20;9.25;;;;;;;2.72;100.00;99205.38;1775339;80;27688;-51
2023/02/20 12:58:53;;;;;;;16.48;10.08;;;;;;;2.79;100.00;99229.86;1774589;80;25560;-53
2023/02/20 13:01:21;;;;;;;18.23;9.00;;;;;;;2.87;100.00;99209.21;1775346;80;25570;-53
2023/02/20 13:04:08;;;;;;;22.62;10.82;;;;;;;2.94;100.00;99203.53;1775174;80;25485;-54
2023/02/20 13:06:41;;;;;;;18.42;9.78;;;;;;;2.98;100.00;99197.34;1775387;80;25446;-51
2023/02/20 13:12:40;;;;;;;18.25;9.85;;;;;;;3.08;100.00;99204.45;1699475;84;25800;-51
2023/02/20 13:15:29;;;;;;;19.50;9.78;;;;;;;3.14;100.00;99205.96;1700783;84;25479;-51
2023/02/20 13:18:21;;;;;;;21.77;10.90;;;;;;;3.20;100.00;99199.22;1700763;84;27629;-50
2023/02/20 13:20:53;;;;;;;23.98;10.28;;;;;;;3.24;100.00;99185.01;1700952;83;25508;-51
2023/02/20 13:23:26;;;;;;;17.57;9.60;;;;;;;3.28;100.00;99182.00;1700561;84;28109;-51
2023/02/20 13:25:57;;;;;;;22.55;11.30;;;;;;;3.33;100.00;99157.88;1700828;84;25434;-55
2023/02/20 13:28:44;;;;;;;22.58;11.57;;;;;;;3.42;100.00;99163.92;1700733;84;25606;-53
2023/02/20 13:31:35;;;;;;;21.85;10.75;;;;;;;3.49;100.00;99172.37;1700781;84;25734;-52
2023/02/20 13:34:10;;;;;;;19.02;10.72;;;;;;;3.55;100.00;99168.55;1700774;84;25580;-55
2023/02/20 13:36:44;;;;;;;24.95;13.38;;;;;;;3.63;100.00;99181.27;1700917;84;27488;-48